Time;durP1;ratioP1;P1;durP2;ratioP2;P2;SDS_P1;SDS_P2;PMS_P1;PMS_P2;Temp;Humidity;BMP_temperature;BMP_pressure;BME280_temperature;BME280_humidity;BME280_pressure;Samples;Min_cycle;Max_cycle;Signal;HPM_P1;HPM_P2
2023/05/28 00:02:39;;;;;;;7.83;7.00;;;13.30;57.10;;;;;;6289448;28;20257;-83
2023/05/28 00:05:42;;;;;;;9.13;7.40;;;13.30;57.40;;;;;;6286661;28;20248;-82
2023/05/28 00:08:47;;;;;;;8.20;7.40;;;13.30;57.50;;;;;;6285293;28;20253;-82
2023/05/28 00:11:50;;;;;;;8.30;7.50;;;13.30;57.50;;;;;;6291673;28;20236;-81
2023/05/28 00:14:54;;;;;;;8.77;7.67;;;13.30;57.70;;;;;;6322113;27;20322;-80
2023/05/28 00:17:57;;;;;;;8.17;7.47;;;13.20;57.90;;;;;;6314066;27;20229;-80
2023/05/28 00:21:00;;;;;;;7.87;7.17;;;13.20;58.00;;;;;;6290119;28;20395;-82
2023/05/28 00:24:06;;;;;;;7.80;7.17;;;13.10;58.00;;;;;;6278512;27;20285;-82
2023/05/28 00:27:09;;;;;;;6.93;6.33;;;13.10;58.00;;;;;;6297106;27;20244;-82
2023/05/28 00:30:13;;;;;;;7.40;6.70;;;13.10;58.00;;;;;;6300001;27;20854;-82
2023/05/28 00:33:16;;;;;;;6.73;6.20;;;13.10;58.00;;;;;;6279724;27;20241;-84
2023/05/28 00:36:19;;;;;;;7.43;6.60;;;13.00;58.20;;;;;;6289664;28;20701;-83
2023/05/28 00:39:24;;;;;;;6.27;5.90;;;13.00;58.30;;;;;;6286162;28;20311;-83
2023/05/28 00:42:27;;;;;;;6.90;6.40;;;13.00;58.40;;;;;;6284938;28;20245;-83
2023/05/28 00:45:31;;;;;;;6.43;6.03;;;12.90;58.30;;;;;;6272332;28;21327;-85
2023/05/28 00:48:34;;;;;;;6.50;6.10;;;12.90;58.50;;;;;;6272409;28;20226;-83
2023/05/28 00:51:39;;;;;;;6.93;6.33;;;12.80;58.70;;;;;;6287564;28;20233;-81
2023/05/28 00:54:44;;;;;;;7.03;6.53;;;12.80;58.80;;;;;;6280543;28;20283;-83
2023/05/28 00:57:48;;;;;;;6.53;6.07;;;12.80;58.90;;;;;;6291315;28;20371;-83
2023/05/28 01:00:51;;;;;;;7.40;6.80;;;12.70;59.20;;;;;;6304338;28;20315;-81
2023/05/28 01:03:55;;;;;;;6.77;6.27;;;12.70;59.20;;;;;;6286178;28;21712;-85
2023/05/28 01:06:58;;;;;;;7.17;6.57;;;12.60;59.20;;;;;;6289214;28;20753;-85
2023/05/28 01:10:04;;;;;;;6.90;6.40;;;12.50;59.40;;;;;;6310874;27;20248;-83
2023/05/28 01:13:10;;;;;;;7.67;7.10;;;12.50;59.50;;;;;;6287198;28;20241;-83
2023/05/28 01:16:13;;;;;;;7.83;6.70;;;12.50;59.70;;;;;;6295462;27;20314;-83
2023/05/28 01:19:19;;;;;;;8.50;7.70;;;12.50;60.00;;;;;;6291460;27;20237;-84
2023/05/28 01:22:29;;;;;;;8.37;7.67;;;12.50;59.90;;;;;;6290356;27;20245;-83
2023/05/28 01:25:37;;;;;;;10.97;8.13;;;12.50;59.80;;;;;;6274011;28;20759;-84
2023/05/28 01:28:44;;;;;;;9.60;8.70;;;12.30;60.00;;;;;;6290103;27;20240;-83
2023/05/28 01:31:47;;;;;;;8.10;7.40;;;12.40;60.30;;;;;;6298231;27;20662;-84
2023/05/28 01:34:50;;;;;;;7.77;7.07;;;12.30;60.20;;;;;;6282690;28;20236;-84
2023/05/28 01:37:57;;;;;;;11.30;8.13;;;12.30;60.30;;;;;;6289297;28;20498;-83
2023/05/28 01:41:03;;;;;;;8.33;7.73;;;12.20;60.60;;;;;;6289150;28;20241;-84
2023/05/28 01:44:12;;;;;;;11.53;8.17;;;12.30;60.70;;;;;;6288155;28;20249;-85
2023/05/28 01:47:16;;;;;;;8.03;7.23;;;12.20;61.20;;;;;;6301836;27;20239;-84
2023/05/28 01:50:19;;;;;;;8.33;7.60;;;12.20;61.30;;;;;;6290264;28;20240;-84
2023/05/28 01:53:23;;;;;;;7.77;7.00;;;12.20;61.10;;;;;;6307748;27;20248;-83
2023/05/28 01:56:27;;;;;;;7.57;6.87;;;12.20;61.20;;;;;;6312349;28;20364;-84
2023/05/28 01:59:31;;;;;;;7.80;7.20;;;12.20;61.20;;;;;;6285870;28;20638;-84
2023/05/28 02:02:34;;;;;;;7.97;7.20;;;12.20;61.40;;;;;;6290334;27;20234;-85
2023/05/28 02:05:38;;;;;;;7.77;7.17;;;12.10;61.30;;;;;;6289933;28;20230;-83
2023/05/28 02:08:41;;;;;;;7.53;6.83;;;12.10;61.30;;;;;;6295652;27;20229;-84
2023/05/28 02:11:46;;;;;;;7.10;6.50;;;12.10;61.30;;;;;;6291909;27;20751;-83
2023/05/28 02:14:53;;;;;;;9.63;7.60;;;12.00;61.30;;;;;;6289682;28;20256;-84
2023/05/28 02:17:57;;;;;;;7.23;6.60;;;12.00;61.40;;;;;;6288459;28;20233;-84
2023/05/28 02:21:01;;;;;;;7.30;6.60;;;12.00;61.50;;;;;;6305103;28;20249;-82
2023/05/28 02:24:05;;;;;;;7.50;6.73;;;12.00;61.50;;;;;;6277281;28;20630;-86
2023/05/28 02:27:10;;;;;;;6.83;6.40;;;11.90;61.70;;;;;;6282321;27;20243;-83
2023/05/28 02:30:14;;;;;;;8.70;7.27;;;11.90;61.50;;;;;;6288410;28;20236;-84
2023/05/28 02:33:17;;;;;;;7.37;6.53;;;11.90;61.50;;;;;;6296904;28;20236;-85
2023/05/28 02:36:22;;;;;;;6.63;6.23;;;11.90;61.40;;;;;;6290885;28;20241;-83
2023/05/28 02:39:26;;;;;;;6.80;6.30;;;11.90;61.40;;;;;;6300917;28;20245;-83
2023/05/28 02:42:30;;;;;;;6.93;6.20;;;11.80;61.20;;;;;;6303744;28;20233;-84
2023/05/28 02:45:33;;;;;;;6.50;6.00;;;11.70;61.40;;;;;;6299829;28;20233;-85
2023/05/28 02:48:37;;;;;;;6.00;5.60;;;11.70;61.30;;;;;;6322341;28;20217;-83
2023/05/28 02:51:42;;;;;;;6.17;5.77;;;11.70;61.40;;;;;;6288872;28;20248;-85
2023/05/28 02:54:45;;;;;;;7.00;6.40;;;11.70;61.30;;;;;;6288068;28;20827;-84
2023/05/28 02:57:52;;;;;;;6.20;5.83;;;11.60;61.40;;;;;;6281457;27;20922;-86
2023/05/28 03:00:55;;;;;;;6.70;6.13;;;11.60;61.50;;;;;;6282954;28;20243;-83
2023/05/28 03:03:59;;;;;;;7.53;6.83;;;11.50;61.50;;;;;;6302741;27;20228;-83
2023/05/28 03:07:02;;;;;;;6.00;5.43;;;11.50;61.70;;;;;;6299234;28;20232;-84
2023/05/28 03:10:06;;;;;;;7.70;6.40;;;11.50;61.60;;;;;;6296091;28;20225;-85
2023/05/28 03:13:11;;;;;;;6.17;5.77;;;11.50;61.80;;;;;;6301536;28;20258;-84
2023/05/28 03:16:14;;;;;;;6.33;5.93;;;11.50;61.70;;;;;;6294817;28;20321;-84
2023/05/28 03:19:17;;;;;;;6.27;5.77;;;11.50;61.80;;;;;;6296900;27;20704;-83
2023/05/28 03:22:21;;;;;;;6.70;6.37;;;11.40;61.80;;;;;;6294895;28;20237;-84
2023/05/28 03:25:25;;;;;;;7.10;6.17;;;11.50;61.90;;;;;;6289038;28;20237;-83
2023/05/28 03:28:33;;;;;;;7.47;6.90;;;11.40;61.90;;;;;;6287985;28;20728;-83
2023/05/28 03:31:45;;;;;;;7.47;6.80;;;11.50;61.90;;;;;;6298072;27;20248;-80
2023/05/28 03:34:48;;;;;;;7.00;6.47;;;11.50;62.00;;;;;;6288128;28;20241;-80
2023/05/28 03:37:51;;;;;;;6.77;6.27;;;11.50;62.00;;;;;;6312879;27;20716;-80
2023/05/28 03:40:54;;;;;;;7.20;6.70;;;11.50;62.00;;;;;;6287549;28;20241;-79
2023/05/28 03:43:59;;;;;;;7.30;6.80;;;11.50;62.10;;;;;;6294469;28;20241;-76
2023/05/28 03:47:02;;;;;;;6.87;6.33;;;11.60;61.90;;;;;;6314297;28;22468;-77
2023/05/28 03:50:07;;;;;;;5.87;5.57;;;11.60;61.70;;;;;;6331941;27;20241;-79
2023/05/28 03:53:10;;;;;;;5.80;5.50;;;11.70;61.50;;;;;;6321480;28;20290;-79
2023/05/28 03:56:13;;;;;;;6.67;6.17;;;11.70;61.60;;;;;;6318103;28;20229;-78
2023/05/28 03:59:18;;;;;;;6.70;6.27;;;11.70;61.50;;;;;;6338152;27;20260;-80
2023/05/28 04:02:21;;;;;;;6.70;6.00;;;11.70;61.40;;;;;;6310433;28;20252;-79
2023/05/28 04:05:25;;;;;;;5.90;5.43;;;11.70;61.30;;;;;;6318084;28;20256;-78
2023/05/28 04:08:28;;;;;;;5.90;5.50;;;11.80;61.30;;;;;;6303592;28;20283;-78
2023/05/28 04:11:34;;;;;;;6.27;5.77;;;11.90;61.30;;;;;;6324417;28;20240;-79
2023/05/28 04:14:40;;;;;;;6.03;5.63;;;11.90;61.10;;;;;;6313364;28;20425;-77
2023/05/28 04:17:44;;;;;;;6.53;5.93;;;11.90;61.10;;;;;;6306026;28;20300;-77
2023/05/28 04:20:50;;;;;;;6.93;6.30;;;11.90;61.00;;;;;;6295736;28;20793;-79
2023/05/28 04:23:53;;;;;;;5.93;5.63;;;12.00;61.00;;;;;;6281153;28;20756;-78
2023/05/28 04:26:56;;;;;;;5.47;5.17;;;12.10;60.80;;;;;;6288014;28;20295;-80
2023/05/28 04:30:01;;;;;;;6.03;5.63;;;12.10;60.50;;;;;;6292591;28;20233;-74
2023/05/28 04:33:04;;;;;;;7.53;6.77;;;12.20;60.30;;;;;;6291719;28;20253;-80
2023/05/28 04:36:09;;;;;;;5.67;5.20;;;12.20;60.10;;;;;;6283683;28;20447;-77
2023/05/28 04:39:13;;;;;;;6.37;5.77;;;12.30;60.00;;;;;;6283096;28;20741;-79
2023/05/28 04:42:19;;;;;;;6.60;4.97;;;12.40;59.80;;;;;;6292601;28;20264;-79
2023/05/28 04:45:24;;;;;;;6.67;6.00;;;12.50;59.70;;;;;;6291838;28;20369;-80
2023/05/28 04:48:27;;;;;;;6.30;5.70;;;12.50;59.30;;;;;;6302226;28;20229;-80
2023/05/28 04:51:30;;;;;;;8.27;5.53;;;12.70;58.70;;;;;;6293057;27;20260;-79
2023/05/28 04:54:34;;;;;;;6.20;5.60;;;12.90;58.40;;;;;;6287402;28;20853;-79
2023/05/28 04:57:37;;;;;;;6.70;6.00;;;13.00;58.20;;;;;;6296734;27;20845;-79
2023/05/28 05:00:42;;;;;;;5.33;5.13;;;13.30;58.20;;;;;;6304397;27;20251;-81
2023/05/28 05:03:45;;;;;;;7.93;5.70;;;13.50;57.60;;;;;;6304658;28;20807;-78
2023/05/28 05:06:48;;;;;;;6.73;6.00;;;13.70;56.20;;;;;;6300760;28;20240;-80
2023/05/28 05:09:52;;;;;;;8.67;6.23;;;13.90;55.60;;;;;;6324015;28;20225;-81
2023/05/28 05:12:55;;;;;;;6.40;6.00;;;14.20;55.40;;;;;;6321681;28;20241;-79
2023/05/28 05:16:00;;;;;;;9.27;6.07;;;14.50;54.50;;;;;;6337487;28;20282;-79
2023/05/28 05:19:06;;;;;;;8.23;5.67;;;14.80;54.70;;;;;;6329731;27;20221;-79
2023/05/28 05:22:09;;;;;;;6.70;6.00;;;15.00;54.20;;;;;;6316824;28;20246;-76
2023/05/28 05:25:12;;;;;;;6.03;5.47;;;15.40;53.50;;;;;;6315955;28;20461;-79
2023/05/28 05:28:15;;;;;;;5.90;5.33;;;15.60;52.70;;;;;;6318453;28;20249;-78
2023/05/28 05:31:20;;;;;;;6.07;5.63;;;16.00;52.90;;;;;;6310657;28;20256;-78
2023/05/28 05:34:23;;;;;;;7.37;5.93;;;16.10;52.00;;;;;;6294421;28;20594;-79
2023/05/28 05:37:26;;;;;;;6.00;5.57;;;16.30;51.70;;;;;;6319947;27;20236;-78
2023/05/28 05:40:29;;;;;;;8.63;5.70;;;16.60;51.80;;;;;;6290845;28;20240;-80
2023/05/28 05:43:32;;;;;;;6.33;5.43;;;16.70;50.80;;;;;;6291009;28;20864;-80
2023/05/28 05:46:37;;;;;;;6.20;5.60;;;17.00;51.30;;;;;;6304378;27;20358;-78
2023/05/28 05:49:40;;;;;;;11.23;5.93;;;17.20;50.50;;;;;;6303060;27;20237;-81
2023/05/28 05:52:43;;;;;;;7.90;5.27;;;17.50;50.10;;;;;;6304281;27;20306;-79
2023/05/28 05:55:47;;;;;;;6.63;5.80;;;17.80;49.90;;;;;;6303155;27;20252;-80
2023/05/28 05:58:51;;;;;;;5.77;5.20;;;18.00;49.40;;;;;;6293915;28;20630;-79
2023/05/28 06:01:56;;;;;;;6.03;5.43;;;18.10;49.50;;;;;;6282360;28;20882;-79
2023/05/28 06:05:01;;;;;;;5.60;5.10;;;18.40;48.60;;;;;;6292666;28;20297;-78
2023/05/28 06:08:05;;;;;;;5.57;5.17;;;18.70;48.70;;;;;;6305917;28;20233;-78
2023/05/28 06:11:08;;;;;;;9.33;5.47;;;19.00;48.40;;;;;;6307203;27;20240;-78
2023/05/28 06:14:11;;;;;;;5.87;5.23;;;19.40;48.30;;;;;;6302061;28;20668;-82
2023/05/28 06:17:16;;;;;;;5.60;5.10;;;19.70;47.30;;;;;;6289955;27;20324;-80
2023/05/28 06:20:21;;;;;;;6.57;4.40;;;19.90;47.20;;;;;;6289456;28;20268;-80
2023/05/28 06:23:24;;;;;;;5.20;4.77;;;20.10;46.40;;;;;;6283394;28;20240;-80
2023/05/28 06:26:27;;;;;;;4.93;4.57;;;20.30;45.50;;;;;;6292377;27;20258;-79
2023/05/28 06:29:30;;;;;;;5.57;5.07;;;20.60;45.70;;;;;;6295001;27;20779;-79
2023/05/28 06:32:35;;;;;;;5.33;4.83;;;20.80;45.40;;;;;;6292380;28;20248;-79
2023/05/28 06:35:38;;;;;;;4.87;4.47;;;21.00;45.40;;;;;;6284749;28;20241;-80
2023/05/28 06:38:41;;;;;;;4.80;4.50;;;21.20;44.70;;;;;;6298609;28;20241;-79
2023/05/28 06:41:45;;;;;;;5.07;4.43;;;21.40;43.70;;;;;;6287284;28;20237;-80
2023/05/28 06:44:49;;;;;;;4.90;4.50;;;21.50;44.50;;;;;;6285716;28;20229;-78
2023/05/28 06:47:56;;;;;;;7.47;4.30;;;21.80;43.70;;;;;;6297474;28;20759;-79
2023/05/28 06:50:59;;;;;;;8.60;4.40;;;21.90;43.30;;;;;;6287252;28;20234;-79
2023/05/28 06:54:03;;;;;;;4.67;4.27;;;21.90;42.30;;;;;;6299243;28;20256;-76
2023/05/28 06:57:07;;;;;;;4.60;4.17;;;21.70;42.50;;;;;;6288102;27;20283;-77
2023/05/28 07:00:15;;;;;;;5.27;4.30;;;21.70;43.50;;;;;;6280232;28;20345;-78
2023/05/28 07:03:19;;;;;;;4.63;4.23;;;21.90;42.30;;;;;;6315138;27;20815;-78
2023/05/28 07:06:22;;;;;;;4.37;4.17;;;21.70;42.20;;;;;;6287631;28;20237;-78
2023/05/28 07:09:25;;;;;;;6.03;4.43;;;21.90;42.10;;;;;;6287616;28;20330;-78
2023/05/28 07:12:29;;;;;;;4.10;3.70;;;21.90;42.00;;;;;;6291967;28;20248;-78
2023/05/28 07:15:32;;;;;;;6.10;4.13;;;21.90;42.20;;;;;;6286945;28;20237;-78
2023/05/28 07:18:37;;;;;;;4.40;3.73;;;22.10;41.50;;;;;;6283668;28;20244;-77
2023/05/28 07:21:40;;;;;;;4.50;4.17;;;22.10;41.50;;;;;;6285317;28;20331;-78
2023/05/28 07:24:45;;;;;;;7.43;3.83;;;22.10;41.10;;;;;;6285917;28;20980;-78
2023/05/28 07:27:48;;;;;;;4.07;3.87;;;22.00;42.60;;;;;;6285264;28;20874;-77
2023/05/28 07:30:53;;;;;;;3.80;3.50;;;22.00;42.80;;;;;;6286442;28;20298;-78
2023/05/28 07:33:58;;;;;;;3.90;3.70;;;21.90;41.50;;;;;;6303155;27;20225;-77
2023/05/28 07:37:01;;;;;;;3.07;2.97;;;21.70;40.50;;;;;;6289745;28;20344;-78
2023/05/28 07:40:05;;;;;;;4.07;3.43;;;21.70;40.70;;;;;;6301229;27;20261;-79
2023/05/28 07:43:09;;;;;;;3.47;3.27;;;21.60;39.90;;;;;;6287540;28;20237;-78
2023/05/28 07:46:13;;;;;;;3.23;3.03;;;21.50;40.00;;;;;;6287899;28;20237;-78
2023/05/28 07:49:18;;;;;;;3.20;3.00;;;21.40;39.20;;;;;;6291627;27;20733;-79
2023/05/28 07:52:21;;;;;;;4.27;3.33;;;21.10;40.00;;;;;;6281979;28;20800;-79
2023/05/28 07:55:24;;;;;;;7.57;3.73;;;21.10;40.40;;;;;;6287757;27;20307;-79
2023/05/28 07:58:27;;;;;;;3.70;3.40;;;21.10;40.00;;;;;;6287781;27;20245;-77
2023/05/28 08:01:30;;;;;;;3.30;3.10;;;20.90;40.50;;;;;;6291272;27;20240;-79
2023/05/28 08:04:35;;;;;;;6.00;3.60;;;20.80;39.80;;;;;;6286407;28;20229;-79
2023/05/28 08:07:39;;;;;;;3.67;3.37;;;20.60;40.10;;;;;;6290995;28;20256;-80
2023/05/28 08:10:42;;;;;;;3.40;3.20;;;20.50;40.70;;;;;;6289115;28;20759;-78
2023/05/28 08:13:45;;;;;;;3.90;2.80;;;20.50;41.40;;;;;;6298883;27;20354;-79
2023/05/28 08:16:48;;;;;;;4.00;3.70;;;20.60;40.60;;;;;;6296794;27;20260;-80
2023/05/28 08:19:52;;;;;;;3.87;3.57;;;20.60;41.50;;;;;;6290309;28;20240;-78
2023/05/28 08:22:58;;;;;;;3.40;3.20;;;20.60;40.70;;;;;;6293346;27;20823;-78
2023/05/28 08:26:02;;;;;;;3.30;3.20;;;20.50;40.30;;;;;;6292143;27;20792;-77
2023/05/28 08:29:05;;;;;;;3.30;3.10;;;20.40;40.00;;;;;;6305905;27;20708;-78
2023/05/28 08:32:08;;;;;;;4.23;3.30;;;20.50;40.90;;;;;;6293060;28;20932;-79
2023/05/28 08:35:14;;;;;;;4.67;3.87;;;20.50;40.10;;;;;;6298525;27;20302;-78
2023/05/28 08:38:17;;;;;;;3.57;3.27;;;20.60;40.70;;;;;;6290771;27;20830;-78
2023/05/28 08:41:21;;;;;;;3.67;3.10;;;20.60;40.10;;;;;;6296361;28;20286;-78
2023/05/28 08:44:27;;;;;;;3.37;3.07;;;20.80;39.80;;;;;;6289089;28;20316;-77
2023/05/28 08:47:33;;;;;;;3.73;3.43;;;20.90;40.20;;;;;;6296933;28;20253;-78
2023/05/28 08:50:41;;;;;;;3.07;2.90;;;21.10;39.50;;;;;;6298615;28;20806;-78
2023/05/28 08:53:46;;;;;;;3.07;2.97;;;21.20;39.70;;;;;;6289843;28;20653;-77
2023/05/28 08:56:50;;;;;;;3.37;3.17;;;21.40;39.60;;;;;;6290323;28;20658;-80
2023/05/28 08:59:54;;;;;;;4.27;3.20;;;21.50;39.20;;;;;;6289340;28;20229;-80
2023/05/28 09:02:58;;;;;;;3.33;3.13;;;21.70;39.30;;;;;;6292602;27;20315;-78
2023/05/28 09:06:03;;;;;;;4.57;3.23;;;21.90;39.00;;;;;;6283342;28;20230;-80
2023/05/28 09:09:07;;;;;;;4.07;3.77;;;21.90;38.80;;;;;;6281520;28;20241;-79
2023/05/28 09:12:12;;;;;;;4.67;3.40;;;21.90;39.00;;;;;;6300965;28;20236;-79
2023/05/28 09:15:22;;;;;;;3.23;3.00;;;21.90;38.70;;;;;;6287846;28;20688;-78
2023/05/28 09:18:25;;;;;;;2.93;2.80;;;22.10;39.20;;;;;;6290115;28;20237;-79
2023/05/28 09:21:30;;;;;;;3.47;3.17;;;22.20;39.40;;;;;;6311326;27;20744;-79
2023/05/28 09:24:35;;;;;;;3.23;3.03;;;22.30;38.60;;;;;;6286420;28;25107;-77
2023/05/28 09:27:38;;;;;;;3.67;3.23;;;22.20;38.30;;;;;;6288672;28;20660;-76
2023/05/28 09:30:42;;;;;;;6.07;3.17;;;22.00;38.20;;;;;;6293279;28;20414;-80
2023/05/28 09:33:48;;;;;;;3.23;3.00;;;22.20;39.30;;;;;;6312282;27;20234;-77
2023/05/28 09:36:54;;;;;;;3.17;3.07;;;22.20;38.20;;;;;;6291667;28;20264;-78
2023/05/28 09:40:03;;;;;;;3.40;3.10;;;22.10;38.60;;;;;;6288316;28;20242;-78
2023/05/28 09:43:08;;;;;;;4.50;3.73;;;21.90;39.00;;;;;;6292389;28;20248;-77
2023/05/28 09:46:11;;;;;;;3.33;3.10;;;21.90;38.60;;;;;;6300092;28;20240;-75
2023/05/28 09:49:14;;;;;;;3.00;2.90;;;21.90;38.70;;;;;;6284611;28;20234;-79
2023/05/28 09:52:20;;;;;;;4.47;3.43;;;21.90;39.00;;;;;;6286331;28;20230;-77
2023/05/28 09:55:25;;;;;;;3.70;3.40;;;22.00;39.80;;;;;;6290603;28;20237;-78
2023/05/28 09:58:34;;;;;;;5.73;3.70;;;22.10;38.90;;;;;;6279113;28;20252;-77
2023/05/28 10:01:42;;;;;;;4.40;3.30;;;22.10;39.50;;;;;;6308273;28;20259;-78
2023/05/28 10:04:47;;;;;;;3.67;3.37;;;22.10;39.40;;;;;;6286546;28;20280;-80
2023/05/28 10:07:54;;;;;;;3.20;3.00;;;22.10;38.60;;;;;;6317211;28;20320;-79
2023/05/28 10:10:57;;;;;;;3.57;3.37;;;22.20;39.00;;;;;;6294190;28;20860;-80
2023/05/28 10:14:01;;;;;;;8.57;3.27;;;22.30;38.20;;;;;;6321296;27;20228;-80
2023/05/28 10:17:04;;;;;;;3.60;3.40;;;22.30;38.10;;;;;;6291825;28;20744;-76
2023/05/28 10:20:10;;;;;;;5.13;3.27;;;22.30;39.00;;;;;;6296792;27;20291;-79
2023/05/28 10:23:16;;;;;;;4.13;3.30;;;22.40;38.90;;;;;;6287590;28;20735;-78
2023/05/28 10:26:21;;;;;;;5.20;3.57;;;22.30;39.30;;;;;;6287882;28;20252;-80
2023/05/28 10:29:25;;;;;;;3.30;3.10;;;22.50;39.00;;;;;;6288352;28;20366;-79
2023/05/28 10:32:28;;;;;;;5.40;3.90;;;22.60;39.00;;;;;;6283579;28;20919;-79
2023/05/28 10:35:33;;;;;;;3.63;3.33;;;22.70;39.00;;;;;;6279838;28;20236;-78
2023/05/28 10:38:42;;;;;;;3.13;3.00;;;22.80;38.20;;;;;;6278864;28;20244;-78
2023/05/28 10:41:45;;;;;;;3.93;3.63;;;22.80;38.10;;;;;;6282972;28;20234;-79
2023/05/28 10:45:10;;;;;;;4.00;3.47;;;22.70;37.90;;;;;;6307573;27;20313;-77
2023/05/28 10:48:16;;;;;;;6.40;3.30;;;22.70;38.00;;;;;;6295354;27;20224;-80
2023/05/28 10:51:19;;;;;;;3.30;3.10;;;22.50;38.40;;;;;;6294518;28;20264;-78
2023/05/28 10:54:39;;;;;;;3.47;3.17;;;22.60;38.40;;;;;;6289133;28;20229;-78
2023/05/28 10:57:45;;;;;;;3.80;3.50;;;22.70;38.20;;;;;;6286674;28;20241;-77
2023/05/28 11:00:48;;;;;;;4.00;3.60;;;22.70;38.20;;;;;;6287555;28;20727;-75
2023/05/28 11:03:55;;;;;;;4.03;3.80;;;22.90;38.10;;;;;;6293132;28;20244;-78
2023/05/28 11:06:59;;;;;;;4.13;3.23;;;22.80;37.60;;;;;;6291290;28;20807;-78
2023/05/28 11:10:05;;;;;;;3.43;3.13;;;22.80;38.00;;;;;;6287188;28;20270;-79
2023/05/28 11:13:08;;;;;;;3.90;3.30;;;22.90;38.20;;;;;;6286457;28;20636;-77
2023/05/28 11:16:12;;;;;;;4.60;3.27;;;23.00;38.70;;;;;;6295361;28;20239;-80
2023/05/28 11:19:16;;;;;;;6.77;3.47;;;23.20;38.30;;;;;;6281675;28;20233;-76
2023/05/28 11:22:20;;;;;;;3.63;3.33;;;23.40;39.00;;;;;;6323696;27;20906;-79
2023/05/28 11:25:25;;;;;;;3.93;3.60;;;23.60;38.00;;;;;;6286514;28;20240;-79
2023/05/28 11:28:28;;;;;;;3.60;3.47;;;23.70;37.90;;;;;;6279694;28;20233;-80
2023/05/28 11:31:38;;;;;;;4.13;3.17;;;23.60;37.80;;;;;;6285712;28;20766;-78
2023/05/28 11:34:41;;;;;;;4.27;3.80;;;23.30;38.30;;;;;;6304184;28;20365;-78
2023/05/28 11:37:45;;;;;;;4.13;3.80;;;23.00;37.60;;;;;;6296389;27;20302;-79
2023/05/28 11:40:51;;;;;;;6.07;3.60;;;23.10;38.50;;;;;;6298270;28;20240;-77
2023/05/28 11:43:54;;;;;;;3.67;3.37;;;23.30;38.20;;;;;;6288021;27;20229;-78
2023/05/28 11:46:58;;;;;;;3.73;3.40;;;23.60;38.10;;;;;;6290381;27;20370;-76
2023/05/28 11:50:07;;;;;;;6.13;3.43;;;23.80;37.70;;;;;;6289191;27;20229;-76
2023/05/28 11:53:11;;;;;;;5.10;3.50;;;23.60;37.60;;;;;;6287079;27;20244;-78
2023/05/28 11:56:18;;;;;;;3.23;3.13;;;23.60;37.60;;;;;;6290538;27;20603;-79
2023/05/28 11:59:25;;;;;;;3.80;3.50;;;23.70;37.20;;;;;;6294837;27;20237;-79
2023/05/28 12:02:28;;;;;;;3.70;3.50;;;23.80;36.90;;;;;;6286089;28;20237;-78
2023/05/28 12:05:38;;;;;;;4.23;3.83;;;23.80;36.80;;;;;;6286182;28;20320;-76
2023/05/28 12:08:41;;;;;;;3.83;3.73;;;23.60;37.10;;;;;;6297181;27;20637;-78
2023/05/28 12:12:01;;;;;;;3.40;3.17;;;23.90;37.00;;;;;;6321984;28;20229;-80
2023/05/28 12:15:06;;;;;;;2.97;2.77;;;23.80;37.40;;;;;;6299452;27;20244;-79
2023/05/28 12:18:09;;;;;;;4.13;2.97;;;23.60;36.60;;;;;;6280401;28;20341;-78
2023/05/28 12:21:18;;;;;;;3.70;3.50;;;23.60;37.20;;;;;;6282102;28;20328;-79
2023/05/28 12:24:21;;;;;;;6.23;3.33;;;23.80;36.80;;;;;;6285345;28;20260;-80
2023/05/28 12:27:26;;;;;;;3.50;3.20;;;23.90;36.10;;;;;;6293074;28;20895;-77
2023/05/28 12:30:29;;;;;;;3.37;3.27;;;24.00;36.50;;;;;;6281804;28;20233;-78
2023/05/28 12:33:32;;;;;;;3.57;3.30;;;24.00;36.20;;;;;;6284990;28;21014;-77
2023/05/28 12:36:35;;;;;;;5.43;3.50;;;24.10;36.50;;;;;;6281791;28;20230;-77
2023/05/28 12:39:39;;;;;;;3.30;3.10;;;24.20;35.40;;;;;;6286146;28;20237;-78
2023/05/28 12:42:43;;;;;;;3.07;2.97;;;24.00;35.90;;;;;;6285766;28;20731;-78
2023/05/28 12:45:47;;;;;;;3.73;3.53;;;23.90;36.10;;;;;;6292524;27;20238;-77
2023/05/28 12:48:50;;;;;;;3.40;3.10;;;24.00;36.10;;;;;;6288277;27;20225;-76
2023/05/28 12:51:54;;;;;;;3.17;3.07;;;24.20;36.60;;;;;;6286555;28;20644;-79
2023/05/28 12:54:58;;;;;;;3.07;2.93;;;24.30;35.60;;;;;;6286412;28;20229;-77
2023/05/28 12:58:18;;;;;;;3.63;3.33;;;24.40;35.90;;;;;;6285802;27;20852;-78
2023/05/28 13:01:21;;;;;;;3.93;3.57;;;24.40;35.20;;;;;;6292823;27;20241;-78
2023/05/28 13:04:24;;;;;;;3.80;3.50;;;24.40;35.50;;;;;;6290287;28;20729;-78
2023/05/28 13:07:27;;;;;;;3.17;2.97;;;24.50;36.10;;;;;;6322165;27;20246;-78
2023/05/28 13:10:31;;;;;;;3.60;3.37;;;24.70;36.30;;;;;;6284403;28;20264;-79
2023/05/28 13:13:35;;;;;;;3.90;3.70;;;25.00;35.90;;;;;;6297481;27;20249;-78
2023/05/28 13:16:38;;;;;;;3.57;3.47;;;25.00;35.50;;;;;;6295100;28;20290;-77
2023/05/28 13:19:41;;;;;;;3.43;3.23;;;25.10;35.50;;;;;;6285610;28;20229;-79
2023/05/28 13:22:44;;;;;;;3.30;3.20;;;25.20;35.30;;;;;;6290810;28;20269;-78
2023/05/28 13:25:48;;;;;;;2.97;2.87;;;25.30;35.00;;;;;;6287460;28;20312;-78
2023/05/28 13:28:52;;;;;;;3.37;3.30;;;25.20;34.60;;;;;;6288563;28;20240;-76
2023/05/28 13:31:56;;;;;;;3.60;3.30;;;25.20;35.30;;;;;;6294407;28;20297;-78
2023/05/28 13:34:59;;;;;;;3.60;3.30;;;25.00;35.30;;;;;;6287655;28;20283;-79
2023/05/28 13:38:03;;;;;;;3.73;3.53;;;25.00;35.10;;;;;;6291671;27;20721;-77
2023/05/28 13:41:06;;;;;;;3.73;3.37;;;25.00;35.70;;;;;;6295276;27;20244;-76
2023/05/28 13:44:13;;;;;;;3.70;3.40;;;25.10;35.70;;;;;;6320251;27;20238;-80
2023/05/28 13:47:17;;;;;;;4.40;3.10;;;25.00;35.30;;;;;;6288676;28;20249;-78
2023/05/28 13:50:21;;;;;;;3.63;3.43;;;25.00;35.50;;;;;;6296051;28;20736;-79
2023/05/28 13:53:24;;;;;;;4.07;3.67;;;25.00;35.60;;;;;;6288971;27;20252;-79
2023/05/28 13:56:27;;;;;;;5.70;3.80;;;25.20;35.90;;;;;;6291814;28;20234;-77
2023/05/28 13:59:32;;;;;;;5.97;3.30;;;25.20;35.30;;;;;;6286273;28;20899;-79
2023/05/28 14:02:35;;;;;;;3.90;3.60;;;25.00;35.70;;;;;;6287472;28;20762;-79
2023/05/28 14:05:39;;;;;;;3.40;3.30;;;25.00;35.80;;;;;;6288479;28;20289;-76
2023/05/28 14:08:43;;;;;;;4.03;3.77;;;25.00;35.70;;;;;;6280790;28;20233;-78
2023/05/28 14:11:46;;;;;;;3.60;3.30;;;24.80;36.30;;;;;;6291281;28;20249;-80
2023/05/28 14:14:57;;;;;;;3.50;3.40;;;25.00;36.40;;;;;;6281777;28;20233;-78
2023/05/28 14:18:01;;;;;;;2.50;2.40;;;25.00;36.20;;;;;;6285368;28;20237;-78
2023/05/28 14:21:05;;;;;;;3.57;3.37;;;25.20;36.20;;;;;;6307884;27;20226;-78
2023/05/28 14:24:09;;;;;;;4.03;3.77;;;25.30;36.00;;;;;;6283313;28;20262;-77
2023/05/28 14:27:12;;;;;;;3.40;3.20;;;25.30;35.70;;;;;;6292658;27;20687;-80
2023/05/28 14:30:17;;;;;;;3.73;3.53;;;25.30;35.40;;;;;;6294238;27;20310;-79
2023/05/28 14:33:20;;;;;;;3.83;3.20;;;25.40;35.40;;;;;;6292384;28;20429;-79
2023/05/28 14:36:25;;;;;;;3.33;3.23;;;25.30;35.40;;;;;;6287211;27;20244;-81
2023/05/28 14:39:28;;;;;;;3.37;3.23;;;25.20;35.90;;;;;;6280197;28;20359;-79
2023/05/28 14:42:32;;;;;;;3.90;3.70;;;25.00;35.40;;;;;;6278568;28;20229;-80
2023/05/28 14:45:36;;;;;;;3.17;3.00;;;24.90;35.60;;;;;;6294389;28;20240;-79
2023/05/28 14:48:39;;;;;;;3.83;3.53;;;25.00;36.30;;;;;;6316217;28;20324;-78
2023/05/28 14:51:42;;;;;;;3.20;3.10;;;25.00;35.90;;;;;;6281357;28;20241;-78
2023/05/28 14:54:45;;;;;;;3.13;3.00;;;25.30;36.20;;;;;;6296406;28;20229;-78
2023/05/28 14:57:50;;;;;;;3.00;2.80;;;25.30;35.90;;;;;;6283489;28;20876;-80
2023/05/28 15:00:54;;;;;;;3.87;3.60;;;25.40;35.90;;;;;;6286479;28;20229;-79
2023/05/28 15:03:58;;;;;;;3.70;3.50;;;25.20;35.50;;;;;;6295958;28;20232;-78
2023/05/28 15:07:04;;;;;;;3.80;3.60;;;25.10;35.80;;;;;;6282561;28;20256;-78
2023/05/28 15:10:08;;;;;;;3.80;3.70;;;25.00;36.20;;;;;;6284546;28;20309;-78
2023/05/28 15:13:12;;;;;;;3.37;3.00;;;25.10;36.70;;;;;;6283885;28;20240;-78
2023/05/28 15:16:16;;;;;;;5.90;3.20;;;25.30;36.50;;;;;;6284021;28;25122;-78
2023/05/28 15:19:21;;;;;;;3.80;3.60;;;25.30;36.30;;;;;;6309251;28;20241;-78
2023/05/28 15:22:24;;;;;;;3.90;3.73;;;25.40;36.60;;;;;;6321128;27;20249;-78
2023/05/28 15:25:27;;;;;;;4.50;3.90;;;25.40;36.20;;;;;;6283117;28;20239;-78
2023/05/28 15:28:31;;;;;;;4.63;3.40;;;25.40;36.50;;;;;;6285749;28;20249;-79
2023/05/28 15:31:37;;;;;;;4.10;3.80;;;25.50;35.90;;;;;;6306292;27;20756;-79
2023/05/28 15:34:40;;;;;;;3.50;3.30;;;25.40;36.00;;;;;;6279044;28;20314;-78
2023/05/28 15:37:44;;;;;;;3.63;3.43;;;25.30;35.80;;;;;;6280360;28;20314;-78
2023/05/28 15:40:48;;;;;;;3.60;3.50;;;25.30;36.20;;;;;;6279083;28;20787;-78
2023/05/28 15:43:53;;;;;;;3.77;3.53;;;25.20;36.60;;;;;;6277562;28;20328;-77
2023/05/28 15:46:58;;;;;;;3.30;3.20;;;25.20;36.40;;;;;;6282294;28;20741;-79
2023/05/28 15:50:01;;;;;;;4.17;3.87;;;25.10;36.10;;;;;;6284399;28;20700;-76
2023/05/28 15:53:04;;;;;;;3.43;3.33;;;25.00;36.20;;;;;;6281130;28;20225;-78
2023/05/28 15:56:08;;;;;;;3.10;3.00;;;24.70;36.40;;;;;;6288376;28;20251;-77
2023/05/28 15:59:11;;;;;;;3.30;3.00;;;24.90;36.80;;;;;;6285277;28;20233;-77